Time;durP1;ratioP1;P1;durP2;ratioP2;P2;SDS_P1;SDS_P2;PMS_P1;PMS_P2;Temp;Humidity;BMP_temperature;BMP_pressure;BME280_temperature;BME280_humidity;BME280_pressure;Samples;Min_cycle;Max_cycle;Signal;HPM_P1;HPM_P2
2021/08/12 00:01:19;;;;;;;1999.90;999.90;;;;;;;15.33;47.73;101646.41;4978821;28;97087;-75
2021/08/12 00:03:47;;;;;;;1999.90;999.90;;;;;;;15.33;47.25;101653.53;4978375;28;98696;-74
2021/08/12 00:06:15;;;;;;;1999.90;999.90;;;;;;;15.33;47.71;101651.75;4976876;28;97511;-75
2021/08/12 00:08:43;;;;;;;1999.90;999.90;;;;;;;15.29;47.59;101652.59;4977334;28;97110;-75
2021/08/12 00:11:11;;;;;;;1999.90;999.90;;;;;;;15.27;47.88;101650.72;4994383;28;100981;-76
2021/08/12 00:13:40;;;;;;;1999.90;999.90;;;;;;;15.24;47.82;101656.94;4976066;28;100944;-75
2021/08/12 00:16:08;;;;;;;1999.90;999.90;;;;;;;15.22;47.80;101655.09;4977450;28;97016;-75
2021/08/12 00:18:36;;;;;;;1999.90;999.90;;;;;;;15.20;47.49;101655.09;4976707;28;98142;-75
2021/08/12 00:21:03;;;;;;;1999.90;999.90;;;;;;;15.17;47.40;101650.56;4976996;28;99307;-75
2021/08/12 00:23:31;;;;;;;1999.90;999.90;;;;;;;15.17;47.65;101649.69;4978875;28;98959;-75
2021/08/12 00:25:59;;;;;;;1999.90;999.90;;;;;;;15.14;47.62;101652.31;4979743;28;96911;-75
2021/08/12 00:28:27;;;;;;;1999.90;999.90;;;;;;;15.13;47.35;101650.50;4994936;28;97651;-75
2021/08/12 00:30:56;;;;;;;1999.90;999.90;;;;;;;15.11;47.36;101646.91;4976863;28;100672;-75
2021/08/12 00:33:24;;;;;;;1999.90;999.90;;;;;;;15.11;47.82;101649.56;4977464;28;97828;-75
2021/08/12 00:35:53;;;;;;;1999.90;999.90;;;;;;;15.11;47.89;101652.25;4977889;28;97759;-75
2021/08/12 00:38:22;;;;;;;1999.90;999.90;;;;;;;15.07;47.97;101653.06;4977214;28;97338;-73
2021/08/12 00:40:51;;;;;;;1999.90;999.90;;;;;;;15.05;47.96;101647.69;4977266;28;98080;-75
2021/08/12 00:43:19;;;;;;;1999.90;999.90;;;;;;;15.04;47.66;101650.34;4960510;28;101222;-74
2021/08/12 00:45:47;;;;;;;1999.90;999.90;;;;;;;15.05;47.68;101646.78;4976550;28;97150;-75
2021/08/12 00:48:17;;;;;;;1999.90;999.90;;;;;;;15.03;47.98;101644.09;4960295;28;97162;-74
2021/08/12 00:50:45;;;;;;;1999.90;999.90;;;;;;;15.02;48.57;101649.44;4992847;28;97693;-74
2021/08/12 00:53:13;;;;;;;1999.90;999.90;;;;;;;15.00;48.66;101643.13;4978744;28;97824;-74
2021/08/12 00:55:43;;;;;;;1999.90;999.90;;;;;;;14.98;48.41;101644.88;4977841;28;97444;-74
2021/08/12 00:58:14;;;;;;;1999.90;999.90;;;;;;;14.96;48.76;101643.94;4960849;28;97310;-76
2021/08/12 01:00:43;;;;;;;1999.90;999.90;;;;;;;14.97;48.69;101641.28;4982364;28;98769;-74
2021/08/12 01:03:13;;;;;;;1999.90;999.90;;;;;;;14.95;48.65;101642.16;4976330;28;99640;-73
2021/08/12 01:05:46;;;;;;;1999.90;999.90;;;;;;;14.93;48.85;101647.50;4976609;28;98232;-74
2021/08/12 01:08:29;;;;;;;1999.90;999.90;;;;;;;14.92;48.65;101645.69;4959469;28;98057;-74
2021/08/12 01:11:01;;;;;;;1999.90;999.90;;;;;;;14.93;48.34;101650.19;4978422;28;98191;-74
2021/08/12 01:13:41;;;;;;;1999.90;999.90;;;;;;;14.89;48.75;101652.78;4976820;28;98098;-74
2021/08/12 01:16:11;;;;;;;1999.90;999.90;;;;;;;14.89;48.80;101656.38;4977650;28;97342;-74
2021/08/12 01:18:47;;;;;;;1999.90;999.90;;;;;;;14.85;48.60;101643.78;4978966;28;97335;-74
2021/08/12 01:21:44;;;;;;;1999.90;999.90;;;;;;;14.82;48.64;101646.41;5000719;28;100442;-74
2021/08/12 01:24:14;;;;;;;1999.90;999.90;;;;;;;14.80;48.59;101645.50;5003674;28;97006;-74
2021/08/12 01:26:48;;;;;;;1999.90;999.90;;;;;;;14.78;48.71;101644.56;5020173;28;96937;-75
2021/08/12 01:29:20;;;;;;;1999.90;999.90;;;;;;;14.73;48.36;101650.72;5002838;28;97202;-76
2021/08/12 01:32:02;;;;;;;1999.90;999.90;;;;;;;14.67;48.59;101646.13;5019155;28;98125;-75
2021/08/12 01:34:50;;;;;;;1999.90;999.90;;;;;;;14.62;48.31;101652.28;5006034;28;99289;-74
2021/08/12 01:37:18;;;;;;;1999.90;999.90;;;;;;;14.58;48.33;101647.75;5006382;28;97111;-75
2021/08/12 01:39:47;;;;;;;1999.90;999.90;;;;;;;14.54;48.78;101652.09;5003518;28;97261;-75
2021/08/12 01:42:17;;;;;;;1999.90;999.90;;;;;;;14.51;48.47;101651.16;5016977;28;97529;-74
2021/08/12 01:44:46;;;;;;;1999.90;999.90;;;;;;;14.49;48.52;101648.44;5018540;28;98996;-74
2021/08/12 01:47:16;;;;;;;1999.90;999.90;;;;;;;14.49;nan;101648.44;5015699;28;97079;-73
2021/08/12 01:49:45;;;;;;;1999.90;999.90;;;;;;;14.47;48.31;101651.97;4986377;28;97372;-74
2021/08/12 01:52:14;;;;;;;1999.90;999.90;;;;;;;14.45;48.46;101659.06;4980964;28;97703;-74
2021/08/12 01:54:45;;;;;;;1999.90;999.90;;;;;;;14.41;48.33;101654.53;4980289;28;101742;-73
2021/08/12 01:57:14;;;;;;;1999.90;999.90;;;;;;;14.38;48.31;101655.38;4979746;28;97681;-74
2021/08/12 01:59:42;;;;;;;1999.90;999.90;;;;;;;14.36;48.22;101651.75;4965579;28;97406;-75
2021/08/12 02:02:10;;;;;;;1999.90;999.90;;;;;;;14.34;48.45;101650.81;4961229;28;99767;-75
2021/08/12 02:04:40;;;;;;;1999.90;999.90;;;;;;;14.33;48.48;101651.72;4976108;28;97680;-75
2021/08/12 02:07:10;;;;;;;1999.90;999.90;;;;;;;14.31;48.37;101647.19;4960827;28;98767;-74
2021/08/12 02:09:41;;;;;;;1999.90;999.90;;;;;;;14.29;48.56;101649.84;4995230;28;97516;-74
2021/08/12 02:12:11;;;;;;;1999.90;999.90;;;;;;;14.28;48.45;101653.38;4976621;28;99771;-75
2021/08/12 02:14:40;;;;;;;1999.90;999.90;;;;;;;14.26;48.53;101651.56;4978477;28;100810;-74
2021/08/12 02:17:08;;;;;;;1999.90;999.90;;;;;;;14.23;48.81;101649.72;4977023;28;98135;-75
2021/08/12 02:19:37;;;;;;;1999.90;999.90;;;;;;;14.21;48.65;101654.13;4961468;28;98302;-74
2021/08/12 02:22:09;;;;;;;1999.90;999.90;;;;;;;14.21;48.87;101658.59;4977360;28;97397;-74
2021/08/12 02:24:41;;;;;;;1999.90;999.90;;;;;;;14.17;48.76;101651.38;4979146;28;98146;-75
2021/08/12 02:27:13;;;;;;;1999.90;999.90;;;;;;;14.14;48.65;101654.88;4977107;28;97887;-73
2021/08/12 02:29:42;;;;;;;1999.90;999.90;;;;;;;14.10;48.88;101645.88;4980435;28;97878;-74
2021/08/12 02:32:11;;;;;;;1999.90;999.90;;;;;;;14.10;48.56;101645.88;4959627;28;99232;-74
2021/08/12 02:34:40;;;;;;;1999.90;999.90;;;;;;;14.08;48.65;101638.69;4977958;28;99225;-74
2021/08/12 02:37:10;;;;;;;1999.90;999.90;;;;;;;14.06;48.43;101633.31;4959975;28;98028;-74
2021/08/12 02:39:39;;;;;;;1999.90;999.90;;;;;;;14.03;48.62;101637.69;4994856;28;97527;-74
2021/08/12 02:42:09;;;;;;;1999.90;999.90;;;;;;;14.02;48.64;101636.78;4976371;28;97798;-74
2021/08/12 02:44:40;;;;;;;1999.90;999.90;;;;;;;13.99;48.62;101628.69;4978240;28;98323;-74
2021/08/12 02:47:09;;;;;;;1999.90;999.90;;;;;;;13.97;48.77;101627.75;4961481;28;97206;-74
2021/08/12 02:49:41;;;;;;;1999.90;999.90;;;;;;;13.94;48.60;101627.72;4978824;28;97782;-74
2021/08/12 02:52:10;;;;;;;1999.90;999.90;;;;;;;13.93;48.88;101633.91;4977975;28;101474;-74
2021/08/12 02:54:38;;;;;;;1999.90;999.90;;;;;;;13.91;48.70;101625.00;4978507;28;97556;-74
2021/08/12 02:57:07;;;;;;;1999.90;999.90;;;;;;;13.90;48.85;101625.84;4977164;28;97238;-74
2021/08/12 02:59:37;;;;;;;1999.90;999.90;;;;;;;13.92;48.62;101625.88;4976986;28;97375;-73
2021/08/12 03:02:06;;;;;;;1999.90;999.90;;;;;;;13.86;48.98;101634.66;4994176;28;98995;-73
2021/08/12 03:04:35;;;;;;;1999.90;999.90;;;;;;;13.82;48.92;101639.94;4961898;28;97895;-73
2021/08/12 03:07:05;;;;;;;1999.90;999.90;;;;;;;13.80;48.91;101642.59;4977447;28;96736;-74
2021/08/12 03:09:33;;;;;;;1999.90;999.90;;;;;;;13.81;48.68;101644.38;4960003;28;97746;-74
2021/08/12 03:12:01;;;;;;;1999.90;999.90;;;;;;;13.79;48.66;101643.44;4961418;28;99403;-73
2021/08/12 03:14:30;;;;;;;1999.90;999.90;;;;;;;13.76;48.55;101639.75;4962145;28;99279;-74
2021/08/12 03:17:00;;;;;;;1999.90;999.90;;;;;;;13.76;48.65;101645.09;4976885;28;97231;-74
2021/08/12 03:19:29;;;;;;;1999.90;999.90;;;;;;;13.73;48.73;101639.69;4961417;28;97388;-74
2021/08/12 03:22:04;;;;;;;1999.90;999.90;;;;;;;13.74;48.59;101637.06;4982941;28;98143;-74
2021/08/12 03:24:36;;;;;;;1999.90;999.90;;;;;;;13.72;48.56;101637.88;4994621;28;98237;-74
2021/08/12 03:27:07;;;;;;;1999.90;999.90;;;;;;;13.65;48.56;101633.28;4975539;28;98197;-74
2021/08/12 03:29:35;;;;;;;1999.90;999.90;;;;;;;13.63;48.50;101638.59;4994502;28;97312;-74
2021/08/12 03:32:06;;;;;;;1999.90;999.90;;;;;;;13.60;48.63;101633.19;4961139;28;100984;-75
2021/08/12 03:34:34;;;;;;;1999.90;999.90;;;;;;;13.55;48.72;101639.28;4977792;28;97943;-75
2021/08/12 03:37:02;;;;;;;1999.90;999.90;;;;;;;13.54;48.74;101630.34;4975567;28;97366;-74
2021/08/12 03:39:33;;;;;;;1999.90;999.90;;;;;;;13.51;48.66;101638.31;4960840;28;98137;-74
2021/08/12 03:42:01;;;;;;;1999.90;999.90;;;;;;;13.48;48.72;101643.59;4992188;28;97369;-74
2021/08/12 03:44:29;;;;;;;1999.90;999.90;;;;;;;13.46;48.84;101639.97;4993470;28;99453;-75
2021/08/12 03:47:06;;;;;;;1999.90;999.90;;;;;;;13.45;48.93;101643.53;4993621;28;96867;-73
2021/08/12 03:49:35;;;;;;;1999.90;999.90;;;;;;;13.41;48.68;101638.06;4977155;28;97779;-73
2021/08/12 03:52:04;;;;;;;1999.90;999.90;;;;;;;13.33;48.68;101637.88;4975851;28;99476;-74
2021/08/12 03:54:35;;;;;;;1999.90;999.90;;;;;;;13.27;48.87;101644.84;4992766;28;97777;-74
2021/08/12 03:57:05;;;;;;;1999.90;999.90;;;;;;;13.24;48.83;101642.13;4977352;28;97381;-73
2021/08/12 03:59:32;;;;;;;1999.90;999.90;;;;;;;13.21;48.92;101648.28;4976848;28;97514;-75
2021/08/12 04:02:00;;;;;;;1999.90;999.90;;;;;;;13.18;48.91;101654.44;4972194;28;97788;-74
2021/08/12 04:04:30;;;;;;;1999.90;999.90;;;;;;;13.13;49.20;101655.19;4972904;28;99001;-74
2021/08/12 04:06:58;;;;;;;1999.90;999.90;;;;;;;13.12;49.69;101653.41;4990662;28;98214;-74
2021/08/12 04:09:27;;;;;;;1999.90;999.90;;;;;;;13.12;49.47;101648.06;4992462;28;97937;-74
2021/08/12 04:11:56;;;;;;;1999.90;999.90;;;;;;;13.11;49.67;101651.63;4975855;28;99002;-74
2021/08/12 04:14:23;;;;;;;1999.90;999.90;;;;;;;13.11;49.72;101657.84;4960647;28;101414;-73
2021/08/12 04:16:52;;;;;;;1999.90;999.90;;;;;;;13.12;49.67;101658.75;4993024;28;98052;-73
2021/08/12 04:19:22;;;;;;;1999.90;999.90;;;;;;;13.12;49.75;101656.09;4976017;28;97488;-74
2021/08/12 04:21:51;;;;;;;1999.90;999.90;;;;;;;13.13;49.73;101655.19;4993142;28;97766;-74
2021/08/12 04:24:20;;;;;;;1999.90;999.90;;;;;;;13.13;49.64;101663.22;4977396;28;98080;-74
2021/08/12 04:26:48;;;;;;;1999.90;999.90;;;;;;;13.11;49.74;101662.31;4977093;28;97176;-74
2021/08/12 04:29:16;;;;;;;1999.90;999.90;;;;;;;13.11;49.79;101664.97;4960359;28;97968;-74
2021/08/12 04:31:44;;;;;;;1999.90;999.90;;;;;;;13.10;49.73;101661.41;4977587;28;99568;-74
2021/08/12 04:34:12;;;;;;;1999.90;999.90;;;;;;;13.10;49.86;101657.81;4975493;28;97917;-74
2021/08/12 04:36:40;;;;;;;1999.90;999.90;;;;;;;13.08;49.89;101659.53;4976267;28;97435;-74
2021/08/12 04:39:10;;;;;;;1999.90;999.90;;;;;;;13.06;50.02;101650.56;4976983;28;97713;-74
2021/08/12 04:41:38;;;;;;;1999.90;999.90;;;;;;;13.06;50.15;101651.50;4959386;28;99327;-74
2021/08/12 04:44:06;;;;;;;1999.90;999.90;;;;;;;13.08;50.27;101655.09;4975401;28;97527;-74
2021/08/12 04:46:35;;;;;;;1999.90;999.90;;;;;;;13.09;50.39;101653.34;4992796;28;97452;-74
2021/08/12 04:49:03;;;;;;;1999.90;999.90;;;;;;;13.11;50.12;101662.31;4960220;28;97868;-75
2021/08/12 04:51:32;;;;;;;1999.90;999.90;;;;;;;13.12;50.24;101666.78;4991752;28;97774;-75
2021/08/12 04:54:00;;;;;;;1999.90;999.90;;;;;;;13.11;50.31;101663.19;4959833;28;99077;-75
2021/08/12 04:56:29;;;;;;;1999.90;999.90;;;;;;;13.13;50.29;101655.19;4976134;28;97017;-75
2021/08/12 04:58:58;;;;;;;1999.90;999.90;;;;;;;13.13;50.36;101658.78;4976391;28;96926;-73
2021/08/12 05:01:26;;;;;;;1999.90;999.90;;;;;;;13.17;50.31;101662.44;4990469;28;97871;-74
2021/08/12 05:03:54;;;;;;;1999.90;999.90;;;;;;;13.17;50.44;101662.44;4975081;28;97835;-74
2021/08/12 05:06:33;;;;;;;1999.90;999.90;;;;;;;13.18;50.29;101665.13;4975058;28;97695;-74
2021/08/12 05:09:01;;;;;;;1999.90;999.90;;;;;;;13.21;50.25;101663.41;4959392;28;98043;-74
2021/08/12 05:11:30;;;;;;;1999.90;999.90;;;;;;;13.22;50.25;101662.56;4975328;28;97974;-74
2021/08/12 05:14:01;;;;;;;1999.90;999.90;;;;;;;13.26;50.36;101675.16;4975499;28;97449;-74
2021/08/12 05:16:29;;;;;;;1999.90;999.90;;;;;;;13.27;50.30;101667.16;4975988;28;97556;-74
2021/08/12 05:18:57;;;;;;;1999.90;999.90;;;;;;;13.28;50.31;101676.97;4974772;28;98751;-74
2021/08/12 05:21:25;;;;;;;1999.90;999.90;;;;;;;13.31;50.16;101666.38;4957671;28;98714;-74
2021/08/12 05:23:53;;;;;;;1999.90;999.90;;;;;;;13.34;50.14;101679.78;4975620;28;97636;-74
2021/08/12 05:26:21;;;;;;;1999.90;999.90;;;;;;;13.36;50.30;101686.09;4975267;28;97806;-73
2021/08/12 05:28:51;;;;;;;1999.90;999.90;;;;;;;13.39;50.28;101685.25;4973509;28;97550;-74
2021/08/12 05:31:18;;;;;;;1999.90;999.90;;;;;;;13.39;50.16;101680.81;4974897;28;99911;-74
2021/08/12 05:33:47;;;;;;;1999.90;999.90;;;;;;;13.41;50.19;101683.50;4973262;28;98909;-74
2021/08/12 05:36:14;;;;;;;1999.90;999.90;;;;;;;13.43;50.15;101674.66;4974405;28;97994;-74
2021/08/12 05:38:42;;;;;;;1999.90;999.90;;;;;;;13.46;49.97;101685.44;4992059;28;97580;-75
2021/08/12 05:41:10;;;;;;;1999.90;999.90;;;;;;;13.46;49.95;101688.09;4975803;28;98812;-75
2021/08/12 05:43:38;;;;;;;1999.90;999.90;;;;;;;13.50;49.97;101686.41;4975360;28;98276;-75
2021/08/12 05:46:08;;;;;;;1999.90;999.90;;;;;;;13.51;49.89;101685.56;4976246;28;97736;-74
2021/08/12 05:48:37;;;;;;;1999.90;999.90;;;;;;;13.53;49.78;101673.13;4960279;28;98379;-73
2021/08/12 05:51:05;;;;;;;1999.90;999.90;;;;;;;13.55;49.68;101680.28;4976039;28;100058;-73
2021/08/12 05:53:33;;;;;;;1999.90;999.90;;;;;;;13.58;49.80;101680.38;4974270;28;99107;-74
2021/08/12 05:56:02;;;;;;;1999.90;999.90;;;;;;;13.61;49.79;101691.13;4975597;28;98097;-74
2021/08/12 05:58:33;;;;;;;1999.90;999.90;;;;;;;13.67;49.66;101690.38;4959064;28;98054;-73
2021/08/12 06:01:00;;;;;;;1999.90;999.90;;;;;;;13.67;49.85;101683.28;4959132;28;101249;-74
2021/08/12 06:03:30;;;;;;;1999.90;999.90;;;;;;;13.71;49.89;101685.16;4972852;28;99881;-74
2021/08/12 06:05:58;;;;;;;1999.90;999.90;;;;;;;13.73;49.88;101694.09;4976376;28;98201;-75
2021/08/12 06:08:29;;;;;;;1999.90;999.90;;;;;;;13.79;50.14;101698.69;4975762;28;98405;-73
2021/08/12 06:10:57;;;;;;;1999.90;999.90;;;;;;;13.82;50.06;101694.31;4961256;28;100502;-73
2021/08/12 06:13:28;;;;;;;1999.90;999.90;;;;;;;13.88;49.94;101704.25;4972807;28;98893;-73
2021/08/12 06:15:58;;;;;;;1999.90;999.90;;;;;;;13.92;49.84;101699.03;4975473;28;97016;-74
2021/08/12 06:18:29;;;;;;;1999.90;999.90;;;;;;;13.95;49.72;101696.41;4961567;28;97348;-74
2021/08/12 06:20:57;;;;;;;1999.90;999.90;;;;;;;14.00;49.45;101689.41;4993918;28;97864;-74
2021/08/12 06:23:25;;;;;;;1999.90;999.90;;;;;;;14.05;49.36;101689.47;4961485;28;99359;-74
2021/08/12 06:25:58;;;;;;;1999.90;999.90;;;;;;;14.07;49.45;101691.34;4986442;28;97087;-75
2021/08/12 06:28:27;;;;;;;1999.90;999.90;;;;;;;14.12;49.52;101678.94;4988399;28;97659;-75
2021/08/12 06:30:58;;;;;;;1999.90;999.90;;;;;;;14.17;49.37;101686.16;4991444;28;97805;-76
2021/08/12 06:33:26;;;;;;;1999.90;999.90;;;;;;;14.23;49.54;101688.94;5010023;28;98236;-76
2021/08/12 06:35:55;;;;;;;1999.90;999.90;;;;;;;14.28;49.45;101682.81;4970737;28;97250;-76
2021/08/12 06:38:23;;;;;;;1999.90;999.90;;;;;;;14.32;49.26;101686.47;4992228;28;98623;-75
2021/08/12 06:40:51;;;;;;;1999.90;999.90;;;;;;;14.36;49.19;101689.25;4990387;28;98368;-76
2021/08/12 06:43:20;;;;;;;1999.90;999.90;;;;;;;14.40;49.02;101692.88;4992659;28;98083;-74
2021/08/12 06:45:53;;;;;;;1999.90;999.90;;;;;;;14.41;48.89;101682.19;5005566;28;97818;-75
2021/08/12 06:48:21;;;;;;;1999.90;999.90;;;;;;;14.47;49.17;101686.78;5014249;28;97043;-75
2021/08/12 06:50:49;;;;;;;1999.90;999.90;;;;;;;14.52;49.09;101680.63;4991324;28;97714;-75
2021/08/12 06:53:19;;;;;;;1999.90;999.90;;;;;;;14.59;48.62;101682.59;4966831;28;98850;-75
2021/08/12 06:55:47;;;;;;;1999.90;999.90;;;;;;;14.64;48.61;101674.66;5010951;28;97449;-75
2021/08/12 06:58:15;;;;;;;1999.90;999.90;;;;;;;14.69;48.72;101673.88;4999820;28;97981;-75
2021/08/12 07:00:44;;;;;;;1999.90;999.90;;;;;;;14.75;48.56;101676.66;5005182;28;98483;-75
2021/08/12 07:03:12;;;;;;;1999.90;999.90;;;;;;;14.77;48.49;101671.31;4988981;28;97987;-75
2021/08/12 07:05:50;;;;;;;1999.90;999.90;;;;;;;14.81;48.84;101673.19;4985466;28;97486;-76
2021/08/12 07:08:19;;;;;;;1999.90;999.90;;;;;;;14.87;48.51;101678.63;4989816;28;97219;-75
2021/08/12 07:10:47;;;;;;;1999.90;999.90;;;;;;;14.91;48.60;101665.34;5004698;28;98286;-76
2021/08/12 07:13:15;;;;;;;1999.90;999.90;;;;;;;14.95;48.77;101667.19;5004910;28;98083;-76
2021/08/12 07:15:45;;;;;;;1999.90;999.90;;;;;;;15.00;48.47;101664.56;4987522;28;97603;-76
2021/08/12 07:18:13;;;;;;;1999.90;999.90;;;;;;;15.06;48.18;101670.94;4983865;28;97540;-75
2021/08/12 07:20:41;;;;;;;1999.90;999.90;;;;;;;15.09;48.24;101662.97;5022073;28;97740;-75
2021/08/12 07:23:09;;;;;;;1999.90;999.90;;;;;;;15.17;48.52;101673.81;5004033;28;98260;-76
2021/08/12 07:25:39;;;;;;;1999.90;999.90;;;;;;;15.22;48.21;101661.38;4999692;28;97467;-75
2021/08/12 07:28:11;;;;;;;1999.90;999.90;;;;;;;15.26;48.36;101668.59;5011987;28;97340;-72
2021/08/12 07:30:39;;;;;;;1999.90;999.90;;;;;;;15.35;48.27;101671.47;4986328;28;98727;-75
2021/08/12 07:33:07;;;;;;;1999.90;999.90;;;;;;;15.43;48.29;101661.75;4986916;28;99134;-73
2021/08/12 07:35:35;;;;;;;1999.90;999.90;;;;;;;15.49;48.49;101661.84;4965217;28;96966;-73
2021/08/12 07:38:05;;;;;;;1999.90;999.90;;;;;;;15.56;48.33;101665.50;4979430;28;97419;-73
2021/08/12 07:40:33;;;;;;;1999.90;999.90;;;;;;;15.63;48.39;101659.38;4978360;28;98271;-70
2021/08/12 07:43:05;;;;;;;1999.90;999.90;;;;;;;15.66;48.57;101649.59;4980231;28;97477;-71
2021/08/12 07:45:33;;;;;;;1999.90;999.90;;;;;;;15.75;48.44;101651.47;4994126;28;97536;-72
2021/08/12 07:48:03;;;;;;;1999.90;999.90;;;;;;;15.78;47.98;101644.38;4980129;28;97933;-72
2021/08/12 07:50:31;;;;;;;1999.90;999.90;;;;;;;15.83;48.16;101649.81;4957167;28;100009;-70
2021/08/12 07:52:58;;;;;;;1999.90;999.90;;;;;;;15.87;48.34;101647.16;4976101;28;99375;-71
2021/08/12 07:55:26;;;;;;;1999.90;999.90;;;;;;;15.94;48.22;101645.50;4976849;28;98286;-72
2021/08/12 07:57:54;;;;;;;1999.90;999.90;;;;;;;15.98;48.19;101650.91;4976508;28;97378;-72
2021/08/12 08:00:23;;;;;;;1999.90;999.90;;;;;;;16.06;48.08;101656.41;4979527;28;97416;-74
2021/08/12 08:02:52;;;;;;;1999.90;999.90;;;;;;;16.10;47.73;101658.25;4976596;28;99205;-72
2021/08/12 08:05:23;;;;;;;1999.90;999.90;;;;;;;16.17;48.00;101664.59;4972265;28;98601;-72
2021/08/12 08:07:55;;;;;;;1999.90;999.90;;;;;;;16.24;47.71;101655.72;4997797;28;97943;-72
2021/08/12 08:10:26;;;;;;;1999.90;999.90;;;;;;;16.29;47.50;101659.38;4988624;28;97777;-71
2021/08/12 08:12:55;;;;;;;1999.90;999.90;;;;;;;16.38;47.35;101659.47;4978094;28;98655;-73
2021/08/12 08:15:25;;;;;;;1999.90;999.90;;;;;;;16.43;47.20;101658.66;4983106;28;97783;-72
2021/08/12 08:18:01;;;;;;;1999.90;999.90;;;;;;;16.52;46.81;101658.75;4985393;28;97818;-73
2021/08/12 08:20:30;;;;;;;1999.90;999.90;;;;;;;16.60;46.83;101661.50;4974336;28;99088;-74
2021/08/12 08:23:03;;;;;;;1999.90;999.90;;;;;;;16.67;46.52;101660.69;4975278;28;97549;-74
2021/08/12 08:25:32;;;;;;;1999.90;999.90;;;;;;;16.73;46.23;101652.69;4974175;28;97612;-74
2021/08/12 08:28:00;;;;;;;1999.90;999.90;;;;;;;16.79;46.20;101650.09;4960063;28;99062;-74
2021/08/12 08:30:31;;;;;;;1999.90;999.90;;;;;;;16.85;46.20;101659.09;4959312;28;100918;-75
2021/08/12 08:32:59;;;;;;;1999.90;999.90;;;;;;;16.91;46.01;101659.16;4964151;28;97938;-75
2021/08/12 08:35:28;;;;;;;1999.90;999.90;;;;;;;16.98;45.62;101652.06;4972478;28;97354;-74
2021/08/12 08:37:57;;;;;;;1999.90;999.90;;;;;;;17.06;45.28;101659.31;4971845;28;97476;-74
2021/08/12 08:40:26;;;;;;;1999.90;999.90;;;;;;;17.14;44.91;101661.16;4988810;28;98483;-74
2021/08/12 08:42:54;;;;;;;1999.90;999.90;;;;;;;17.19;44.58;101646.84;4973495;28;99256;-74
2021/08/12 08:45:26;;;;;;;1999.90;999.90;;;;;;;17.31;43.88;101652.31;4973830;28;97564;-73
2021/08/12 08:47:57;;;;;;;1999.90;999.90;;;;;;;17.40;43.83;101646.16;4971254;28;98077;-73
2021/08/12 08:50:31;;;;;;;1999.90;999.90;;;;;;;17.47;43.91;101646.19;4974982;28;97490;-73
2021/08/12 08:53:00;;;;;;;1999.90;999.90;;;;;;;17.56;43.66;101656.13;4975899;28;99881;-74
2021/08/12 08:55:28;;;;;;;1999.90;999.90;;;;;;;17.63;43.38;101648.09;4976904;28;97462;-75
2021/08/12 08:57:58;;;;;;;1999.90;999.90;;;;;;;17.73;42.99;101649.94;4958468;28;97185;-74
2021/08/12 09:00:27;;;;;;;1999.90;999.90;;;;;;;17.79;42.95;101647.28;4975335;28;100417;-73
2021/08/12 09:02:58;;;;;;;1999.90;999.90;;;;;;;17.88;42.72;101650.00;4975248;28;99938;-73
2021/08/12 09:05:27;;;;;;;1999.90;999.90;;;;;;;17.94;42.28;101650.06;4990586;28;97755;-73
2021/08/12 09:07:55;;;;;;;1999.90;999.90;;;;;;;17.99;42.07;101648.28;4974105;28;97964;-73
2021/08/12 09:10:23;;;;;;;1999.90;999.90;;;;;;;18.08;41.55;101641.13;4970704;28;98861;-75
2021/08/12 09:12:51;;;;;;;1999.90;999.90;;;;;;;18.15;41.22;101637.59;4974964;28;98267;-74
2021/08/12 09:15:20;;;;;;;1999.90;999.90;;;;;;;18.22;40.71;101639.41;4992174;28;97445;-73
2021/08/12 09:17:49;;;;;;;1999.90;999.90;;;;;;;18.30;40.41;101641.22;4976148;28;97348;-74
2021/08/12 09:20:20;;;;;;;1999.90;999.90;;;;;;;18.36;40.21;101637.66;4990802;28;97457;-75
2021/08/12 09:22:56;;;;;;;1999.90;999.90;;;;;;;18.40;39.60;101639.47;4991373;28;99016;-75
2021/08/12 09:25:34;;;;;;;1999.90;999.90;;;;;;;18.46;39.40;101639.50;4970150;28;98247;-74
2021/08/12 09:28:13;;;;;;;1999.90;999.90;;;;;;;18.52;39.15;101634.09;4976848;28;97791;-75
2021/08/12 09:30:41;;;;;;;1999.90;999.90;;;;;;;18.54;39.52;101637.69;4976714;28;97017;-75
2021/08/12 09:33:16;;;;;;;1999.90;999.90;;;;;;;18.60;38.97;101632.31;4974020;28;100307;-73
2021/08/12 09:35:46;;;;;;;1999.90;999.90;;;;;;;18.68;38.76;101636.84;4973287;28;97358;-72
2021/08/12 09:38:15;;;;;;;1999.90;999.90;;;;;;;18.71;38.51;101622.50;4975431;28;98908;-72
2021/08/12 09:40:44;;;;;;;1999.90;999.90;;;;;;;18.79;38.45;101631.47;4973704;28;97826;-72
2021/08/12 09:43:11;;;;;;;1999.90;999.90;;;;;;;18.84;38.08;101627.00;4975068;28;98877;-73
2021/08/12 09:45:40;;;;;;;1999.90;999.90;;;;;;;18.89;38.24;101625.19;4973413;28;99573;-72
2021/08/12 09:48:12;;;;;;;1999.90;999.90;;;;;;;18.97;38.38;101618.88;4974364;28;97804;-72
2021/08/12 09:50:40;;;;;;;1999.90;999.90;;;;;;;19.06;37.97;101609.91;4973372;28;99737;-72
2021/08/12 09:53:09;;;;;;;1999.90;999.90;;;;;;;19.14;37.89;101613.47;4961534;28;100073;-73
2021/08/12 09:55:39;;;;;;;1999.90;999.90;;;;;;;19.22;38.07;101610.78;4978624;28;97301;-73
2021/08/12 09:58:08;;;;;;;1999.90;999.90;;;;;;;19.27;37.44;101611.66;4993758;28;97796;-73
2021/08/12 10:00:39;;;;;;;1999.90;999.90;;;;;;;19.35;37.66;101610.81;4977217;28;103137;-72
2021/08/12 10:03:26;;;;;;;1999.90;999.90;;;;;;;19.43;37.21;101605.38;4976404;28;98773;-72
2021/08/12 10:05:55;;;;;;;1999.90;999.90;;;;;;;19.48;37.50;101601.75;4970821;28;97862;-72
2021/08/12 10:08:32;;;;;;;1999.90;999.90;;;;;;;19.53;37.33;101605.38;4970057;28;97730;-73
2021/08/12 10:11:18;;;;;;;1999.90;999.90;;;;;;;19.61;36.65;101608.91;4970240;28;99176;-73
2021/08/12 10:13:46;;;;;;;1999.90;999.90;;;;;;;19.65;36.25;101605.31;4950625;28;100746;-72
2021/08/12 10:16:15;;;;;;;1999.90;999.90;;;;;;;19.72;36.57;101615.19;4978493;28;98520;-74
2021/08/12 10:18:45;;;;;;;1999.90;999.90;;;;;;;19.80;36.70;101605.28;4977512;28;97842;-74
2021/08/12 10:21:15;;;;;;;1999.90;999.90;;;;;;;19.88;36.52;101608.81;4975702;28;99309;-74
2021/08/12 10:23:48;;;;;;;1999.90;999.90;;;;;;;19.97;36.33;101603.41;4978522;28;98875;-74
2021/08/12 10:26:18;;;;;;;1999.90;999.90;;;;;;;20.07;36.20;101606.06;4975233;28;98226;-74
2021/08/12 10:28:48;;;;;;;1999.90;999.90;;;;;;;20.12;36.54;101605.13;4977132;28;98253;-74
2021/08/12 10:31:21;;;;;;;1999.90;999.90;;;;;;;20.21;36.52;101601.50;4978151;28;97854;-73
2021/08/12 10:33:53;;;;;;;1999.90;999.90;;;;;;;20.25;35.98;101598.75;4994160;28;98777;-74
2021/08/12 10:36:22;;;;;;;1999.90;999.90;;;;;;;20.29;35.83;101595.16;4977938;28;98721;-74
2021/08/12 10:38:52;;;;;;;1999.90;999.90;;;;;;;20.35;35.88;101595.13;4993475;28;97777;-75
2021/08/12 10:41:20;;;;;;;1999.90;999.90;;;;;;;20.39;36.10;101585.19;4977322;28;97580;-74
2021/08/12 10:43:52;;;;;;;1999.90;999.90;;;;;;;20.47;36.01;101594.13;4977086;28;99548;-75
2021/08/12 10:46:33;;;;;;;1999.90;999.90;;;;;;;20.50;35.63;101589.56;4978117;28;97693;-74
2021/08/12 10:49:28;;;;;;;1999.90;999.90;;;;;;;20.57;35.60;101583.28;4978028;28;96909;-76
2021/08/12 10:52:01;;;;;;;1999.90;999.90;;;;;;;20.66;35.31;101576.91;4975123;28;99486;-75
2021/08/12 10:54:32;;;;;;;1999.90;999.90;;;;;;;20.72;35.16;101579.56;4992939;28;98584;-75
2021/08/12 10:57:18;;;;;;;1999.90;999.90;;;;;;;20.79;35.25;101581.31;4977343;28;97228;-75
2021/08/12 10:59:47;;;;;;;1999.90;999.90;;;;;;;20.87;35.39;101574.91;4978065;28;97624;-75